MSR704 LIMC-HECA
Flight info
| Callsign | MSR704 |
|---|---|
| Flight time | 3h 7m |
| Altitude | 37000 |
| Route | ROBAS DCT IPDAB DCT LUMAV DCT NIKOL DCT AMUGO/N0469F390 DCT VAKSU DCT PINDO DCT KEA UN132 KUMBI L612 BLT A16 CVO |
| Aircraft | B77W/H-SDE1E2E3FGHIJ2J3J4J5M1RWXY/LB1D1 |
Departure
| Time | 2026-05-06 19:07 |
|---|---|
| Airport | Milan Malpensa International Airport (LIMC) |
Arrival
| Time | 2026-05-06 22:14 |
|---|---|
| Airport | Cairo International Airport (HECA) |
| Time | Latitude | Longitude | Altitude | Speed | Heading |
|---|---|---|---|---|---|
| 2026-05-06 18:41 | 45.62867 | 8.71517 | 741 ft | 0 kts | 169° |
| 2026-05-06 18:49 | 45.62885 | 8.71512 | 741 ft | 4 kts | 160° |
| 2026-05-06 18:49 | 45.62908 | 8.71494 | 740 ft | 4 kts | 138° |
| 2026-05-06 18:49 | 45.62924 | 8.71465 | 741 ft | 4 kts | 107° |
| 2026-05-06 18:50 | 45.62927 | 8.71442 | 741 ft | 0 kts | 84° |
| 2026-05-06 18:52 | 45.62927 | 8.71443 | 741 ft | 0 kts | 84° |
| 2026-05-06 18:53 | 45.62927 | 8.71452 | 741 ft | 2 kts | 84° |
| 2026-05-06 18:53 | 45.62933 | 8.71502 | 741 ft | 8 kts | 79° |
| 2026-05-06 18:53 | 45.62945 | 8.71600 | 738 ft | 10 kts | 79° |
| 2026-05-06 18:53 | 45.62958 | 8.71701 | 738 ft | 10 kts | 79° |
| 2026-05-06 18:54 | 45.62972 | 8.71803 | 738 ft | 10 kts | 79° |
| 2026-05-06 18:54 | 45.62986 | 8.71903 | 738 ft | 10 kts | 79° |
| 2026-05-06 18:54 | 45.62992 | 8.72005 | 741 ft | 10 kts | 104° |
| 2026-05-06 18:54 | 45.62934 | 8.72062 | 741 ft | 11 kts | 166° |
| 2026-05-06 18:55 | 45.62861 | 8.72084 | 742 ft | 11 kts | 169° |
| 2026-05-06 18:55 | 45.62786 | 8.72104 | 741 ft | 11 kts | 169° |
| 2026-05-06 18:55 | 45.62712 | 8.72125 | 738 ft | 11 kts | 169° |
| 2026-05-06 18:55 | 45.62638 | 8.72145 | 741 ft | 11 kts | 169° |
| 2026-05-06 18:56 | 45.62561 | 8.72167 | 739 ft | 11 kts | 169° |
| 2026-05-06 18:56 | 45.62483 | 8.72188 | 739 ft | 12 kts | 169° |
| 2026-05-06 18:56 | 45.62402 | 8.72210 | 741 ft | 12 kts | 169° |
| 2026-05-06 18:56 | 45.62317 | 8.72233 | 739 ft | 13 kts | 169° |
| 2026-05-06 18:57 | 45.62230 | 8.72257 | 739 ft | 13 kts | 169° |
| 2026-05-06 18:57 | 45.62141 | 8.72281 | 740 ft | 13 kts | 169° |
| 2026-05-06 18:57 | 45.62054 | 8.72306 | 740 ft | 13 kts | 168° |
| 2026-05-06 18:57 | 45.61966 | 8.72332 | 740 ft | 13 kts | 168° |
| 2026-05-06 18:58 | 45.61878 | 8.72356 | 740 ft | 13 kts | 169° |
| 2026-05-06 18:58 | 45.61790 | 8.72381 | 742 ft | 13 kts | 169° |
| 2026-05-06 18:58 | 45.61702 | 8.72404 | 741 ft | 13 kts | 169° |
| 2026-05-06 18:58 | 45.61611 | 8.72429 | 739 ft | 15 kts | 169° |
| 2026-05-06 18:59 | 45.61487 | 8.72462 | 741 ft | 21 kts | 169° |
| 2026-05-06 18:59 | 45.61321 | 8.72509 | 741 ft | 27 kts | 169° |
| 2026-05-06 18:59 | 45.61184 | 8.72547 | 740 ft | 18 kts | 169° |
| 2026-05-06 18:59 | 45.61091 | 8.72585 | 741 ft | 8 kts | 136° |
| 2026-05-06 19:00 | 45.61084 | 8.72669 | 742 ft | 9 kts | 84° |
| 2026-05-06 19:00 | 45.61091 | 8.72756 | 744 ft | 9 kts | 81° |
| 2026-05-06 19:00 | 45.61101 | 8.72842 | 742 ft | 9 kts | 80° |
| 2026-05-06 19:00 | 45.61113 | 8.72931 | 743 ft | 10 kts | 78° |
| 2026-05-06 19:01 | 45.61116 | 8.72955 | 742 ft | 0 kts | 78° |
| 2026-05-06 19:01 | 45.61117 | 8.72963 | 742 ft | 0 kts | 78° |
| 2026-05-06 19:01 | 45.61118 | 8.72966 | 741 ft | 1 kts | 78° |
| 2026-05-06 19:01 | 45.61122 | 8.72988 | 741 ft | 3 kts | 68° |
| 2026-05-06 19:02 | 45.61134 | 8.73027 | 742 ft | 5 kts | 64° |
| 2026-05-06 19:02 | 45.61158 | 8.73072 | 742 ft | 6 kts | 44° |
| 2026-05-06 19:02 | 45.61196 | 8.73109 | 742 ft | 7 kts | 33° |
| 2026-05-06 19:02 | 45.61240 | 8.73151 | 740 ft | 8 kts | 33° |
| 2026-05-06 19:03 | 45.61290 | 8.73199 | 740 ft | 9 kts | 33° |
| 2026-05-06 19:03 | 45.61344 | 8.73250 | 738 ft | 10 kts | 33° |
| 2026-05-06 19:03 | 45.61411 | 8.73261 | 740 ft | 10 kts | 349° |
| 2026-05-06 19:03 | 45.61482 | 8.73244 | 742 ft | 11 kts | 351° |
| 2026-05-06 19:04 | 45.61551 | 8.73227 | 742 ft | 9 kts | 350° |
| 2026-05-06 19:04 | 45.61611 | 8.73215 | 742 ft | 0 kts | 4° |
| 2026-05-06 19:04 | 45.61615 | 8.73219 | 742 ft | 1 kts | 24° |
| 2026-05-06 19:04 | 45.61620 | 8.73229 | 739 ft | 2 kts | 54° |
| 2026-05-06 19:05 | 45.61623 | 8.73254 | 742 ft | 4 kts | 80° |
| 2026-05-06 19:05 | 45.61627 | 8.73305 | 742 ft | 7 kts | 85° |
| 2026-05-06 19:05 | 45.61628 | 8.73418 | 740 ft | 13 kts | 103° |
| 2026-05-06 19:05 | 45.61588 | 8.73580 | 742 ft | 19 kts | 92° |
| 2026-05-06 19:06 | 45.61643 | 8.73721 | 741 ft | 14 kts | 4° |
| 2026-05-06 19:06 | 45.61746 | 8.73700 | 741 ft | 19 kts | 350° |
| 2026-05-06 19:06 | 45.62017 | 8.73627 | 741 ft | 73 kts | 349° |
| 2026-05-06 19:06 | 45.62780 | 8.73416 | 740 ft | 148 kts | 349° |
| 2026-05-06 19:07 | 45.63945 | 8.73098 | 849 ft | 194 kts | 349° |
| 2026-05-06 19:07 | 45.65312 | 8.72724 | 1454 ft | 204 kts | 349° |
| 2026-05-06 19:07 | 45.66720 | 8.72367 | 2296 ft | 205 kts | 354° |
| 2026-05-06 19:07 | 45.68152 | 8.72337 | 2911 ft | 218 kts | 2° |
| 2026-05-06 19:08 | 45.69487 | 8.72405 | 3474 ft | 227 kts | 1° |
| 2026-05-06 19:08 | 45.71090 | 8.72469 | 4227 ft | 231 kts | 4° |
| 2026-05-06 19:08 | 45.72609 | 8.73177 | 4845 ft | 236 kts | 37° |
| 2026-05-06 19:08 | 45.73596 | 8.75027 | 5000 ft | 242 kts | 69° |
| 2026-05-06 19:09 | 45.74116 | 8.77259 | 5012 ft | 243 kts | 71° |
| 2026-05-06 19:09 | 45.74555 | 8.79631 | 4981 ft | 238 kts | 89° |
| 2026-05-06 19:09 | 45.74213 | 8.81963 | 5021 ft | 245 kts | 111° |
| 2026-05-06 19:09 | 45.73622 | 8.84272 | 5007 ft | 248 kts | 112° |
| 2026-05-06 19:10 | 45.72769 | 8.86405 | 5011 ft | 249 kts | 126° |
| 2026-05-06 19:10 | 45.71727 | 8.88393 | 5039 ft | 250 kts | 128° |
| 2026-05-06 19:10 | 45.70660 | 8.90382 | 5555 ft | 252 kts | 128° |
| 2026-05-06 19:10 | 45.69607 | 8.92375 | 6213 ft | 251 kts | 127° |
| 2026-05-06 19:11 | 45.68563 | 8.94387 | 6826 ft | 253 kts | 127° |
| 2026-05-06 19:11 | 45.67520 | 8.96423 | 7569 ft | 256 kts | 127° |
| 2026-05-06 19:11 | 45.66467 | 8.98484 | 8415 ft | 258 kts | 127° |
| 2026-05-06 19:11 | 45.65409 | 9.00560 | 9235 ft | 261 kts | 127° |
| 2026-05-06 19:12 | 45.64318 | 9.02661 | 10043 ft | 265 kts | 130° |
| 2026-05-06 19:12 | 45.63108 | 9.04663 | 10813 ft | 269 kts | 134° |
| 2026-05-06 19:12 | 45.61807 | 9.06689 | 11383 ft | 287 kts | 134° |
| 2026-05-06 19:12 | 45.60377 | 9.08894 | 11610 ft | 318 kts | 134° |
| 2026-05-06 19:13 | 45.58823 | 9.11294 | 11861 ft | 349 kts | 134° |
| 2026-05-06 19:13 | 45.57116 | 9.13941 | 12240 ft | 373 kts | 134° |
| 2026-05-06 19:13 | 45.55333 | 9.16720 | 13109 ft | 384 kts | 134° |
| 2026-05-06 19:13 | 45.53516 | 9.19562 | 14062 ft | 391 kts | 134° |
| 2026-05-06 19:14 | 45.51678 | 9.22440 | 15089 ft | 396 kts | 134° |
| 2026-05-06 19:14 | 45.49810 | 9.25365 | 16110 ft | 400 kts | 134° |
| 2026-05-06 19:14 | 45.47922 | 9.28320 | 17037 ft | 406 kts | 134° |
| 2026-05-06 19:14 | 45.46009 | 9.31309 | 17916 ft | 412 kts | 134° |
| 2026-05-06 19:15 | 45.44062 | 9.34347 | 18806 ft | 417 kts | 134° |
| 2026-05-06 19:15 | 45.42097 | 9.37410 | 19654 ft | 420 kts | 134° |
| 2026-05-06 19:15 | 45.40114 | 9.40498 | 20010 ft | 426 kts | 134° |
| 2026-05-06 19:15 | 45.38107 | 9.43620 | 19996 ft | 427 kts | 134° |
| 2026-05-06 19:16 | 45.36092 | 9.46750 | 20524 ft | 433 kts | 134° |
| 2026-05-06 19:16 | 45.34049 | 9.49921 | 21451 ft | 434 kts | 134° |
| 2026-05-06 19:16 | 45.32008 | 9.53086 | 22345 ft | 436 kts | 134° |
| 2026-05-06 19:16 | 45.29949 | 9.56273 | 23104 ft | 440 kts | 134° |
| 2026-05-06 19:17 | 45.27868 | 9.59491 | 23791 ft | 445 kts | 134° |
| 2026-05-06 19:17 | 45.25756 | 9.62753 | 24470 ft | 450 kts | 134° |
| 2026-05-06 19:17 | 45.23630 | 9.66034 | 25110 ft | 454 kts | 134° |
| 2026-05-06 19:17 | 45.21478 | 9.69350 | 25733 ft | 459 kts | 135° |
| 2026-05-06 19:18 | 45.19465 | 9.72883 | 26222 ft | 466 kts | 123° |
| 2026-05-06 19:18 | 45.18207 | 9.77148 | 26696 ft | 472 kts | 107° |
| 2026-05-06 19:18 | 45.17388 | 9.81673 | 27144 ft | 478 kts | 106° |
| 2026-05-06 19:18 | 45.16547 | 9.86195 | 27665 ft | 482 kts | 107° |
| 2026-05-06 19:19 | 45.15646 | 9.90854 | 28222 ft | 485 kts | 107° |
| 2026-05-06 19:19 | 45.14729 | 9.95469 | 28741 ft | 488 kts | 108° |
| 2026-05-06 19:19 | 45.13791 | 10.00095 | 29188 ft | 491 kts | 108° |
| 2026-05-06 19:19 | 45.12838 | 10.04754 | 29607 ft | 494 kts | 108° |
| 2026-05-06 19:20 | 45.11879 | 10.09427 | 30053 ft | 496 kts | 108° |
| 2026-05-06 19:20 | 45.10913 | 10.14116 | 30586 ft | 495 kts | 108° |
| 2026-05-06 19:20 | 45.09948 | 10.18786 | 31104 ft | 494 kts | 108° |
| 2026-05-06 19:20 | 45.09307 | 10.21888 | 31410 ft | 495 kts | 108° |
| 2026-05-06 19:21 | 45.08013 | 10.28142 | 31971 ft | 496 kts | 108° |
| 2026-05-06 19:21 | 45.07369 | 10.31247 | 32264 ft | 496 kts | 108° |
| 2026-05-06 19:21 | 45.06398 | 10.35926 | 32695 ft | 496 kts | 108° |
| 2026-05-06 19:21 | 45.05422 | 10.40619 | 33116 ft | 497 kts | 108° |
| 2026-05-06 19:22 | 45.04446 | 10.45300 | 33517 ft | 497 kts | 108° |
| 2026-05-06 19:22 | 45.03464 | 10.49994 | 33906 ft | 498 kts | 108° |
| 2026-05-06 19:22 | 45.02479 | 10.54691 | 34288 ft | 498 kts | 108° |
| 2026-05-06 19:22 | 45.01496 | 10.59374 | 34694 ft | 497 kts | 108° |
| 2026-05-06 19:23 | 45.00511 | 10.64061 | 35118 ft | 496 kts | 108° |
| 2026-05-06 19:23 | 44.99528 | 10.68724 | 35539 ft | 495 kts | 108° |
| 2026-05-06 19:23 | 44.98545 | 10.73374 | 35903 ft | 494 kts | 108° |
| 2026-05-06 19:23 | 44.97560 | 10.78029 | 36243 ft | 494 kts | 108° |
| 2026-05-06 19:24 | 44.96574 | 10.82674 | 36577 ft | 494 kts | 108° |
| 2026-05-06 19:24 | 44.95595 | 10.87329 | 36881 ft | 494 kts | 107° |
| 2026-05-06 19:24 | 44.94678 | 10.92017 | 36954 ft | 496 kts | 106° |
| 2026-05-06 19:25 | 44.92962 | 11.01301 | 36966 ft | 483 kts | 105° |
| 2026-05-06 19:25 | 44.91261 | 11.10456 | 36985 ft | 483 kts | 106° |
| 2026-05-06 19:26 | 44.89517 | 11.19628 | 36987 ft | 485 kts | 106° |
| 2026-05-06 19:26 | 44.87754 | 11.28817 | 36995 ft | 487 kts | 106° |
| 2026-05-06 19:27 | 44.85976 | 11.38038 | 36988 ft | 488 kts | 106° |
| 2026-05-06 19:27 | 44.84192 | 11.47253 | 36974 ft | 488 kts | 106° |
| 2026-05-06 19:28 | 44.82400 | 11.56475 | 36970 ft | 488 kts | 106° |
| 2026-05-06 19:28 | 44.80388 | 11.65578 | 36973 ft | 486 kts | 112° |
| 2026-05-06 19:29 | 44.77944 | 11.74368 | 36971 ft | 485 kts | 112° |
| 2026-05-06 19:29 | 44.75464 | 11.83188 | 36972 ft | 485 kts | 112° |
| 2026-05-06 19:30 | 44.73000 | 11.92015 | 36972 ft | 484 kts | 112° |
| 2026-05-06 19:30 | 44.70549 | 12.00829 | 36973 ft | 484 kts | 112° |
| 2026-05-06 19:31 | 44.68090 | 12.09651 | 36973 ft | 485 kts | 112° |
| 2026-05-06 19:31 | 44.64386 | 12.22871 | 36971 ft | 485 kts | 112° |
| 2026-05-06 19:32 | 44.61902 | 12.31680 | 36973 ft | 485 kts | 112° |
| 2026-05-06 19:32 | 44.59416 | 12.40478 | 36971 ft | 485 kts | 112° |
| 2026-05-06 19:33 | 44.56969 | 12.49112 | 36974 ft | 486 kts | 112° |
| 2026-05-06 19:33 | 44.54464 | 12.57917 | 36973 ft | 486 kts | 112° |
| 2026-05-06 19:34 | 44.51955 | 12.66702 | 36974 ft | 486 kts | 113° |
| 2026-05-06 19:34 | 44.49440 | 12.75472 | 36977 ft | 485 kts | 113° |
| 2026-05-06 19:35 | 44.46920 | 12.84232 | 36980 ft | 484 kts | 113° |
| 2026-05-06 19:35 | 44.44398 | 12.92963 | 37004 ft | 483 kts | 113° |
| 2026-05-06 19:36 | 44.41877 | 13.01670 | 36995 ft | 483 kts | 113° |
| 2026-05-06 19:36 | 44.39347 | 13.10377 | 36998 ft | 483 kts | 113° |
| 2026-05-06 19:37 | 44.36811 | 13.19067 | 37002 ft | 482 kts | 113° |
| 2026-05-06 19:37 | 44.34273 | 13.27740 | 37000 ft | 482 kts | 113° |
| 2026-05-06 19:38 | 44.31730 | 13.36403 | 37008 ft | 482 kts | 113° |
| 2026-05-06 19:38 | 44.29177 | 13.45066 | 37015 ft | 482 kts | 113° |
| 2026-05-06 19:39 | 44.26637 | 13.53656 | 37026 ft | 482 kts | 113° |
| 2026-05-06 19:39 | 44.24076 | 13.62292 | 37029 ft | 482 kts | 113° |
| 2026-05-06 19:40 | 44.21379 | 13.70850 | 37029 ft | 482 kts | 119° |
| 2026-05-06 19:40 | 44.18096 | 13.78990 | 37031 ft | 482 kts | 121° |
| 2026-05-06 19:41 | 44.14767 | 13.87080 | 37041 ft | 482 kts | 121° |
| 2026-05-06 19:41 | 44.11492 | 13.95092 | 37043 ft | 482 kts | 121° |
| 2026-05-06 19:42 | 44.08189 | 14.03209 | 37040 ft | 482 kts | 121° |
| 2026-05-06 19:42 | 44.04886 | 14.11323 | 37032 ft | 482 kts | 121° |
| 2026-05-06 19:43 | 44.01574 | 14.19430 | 37047 ft | 482 kts | 121° |
| 2026-05-06 19:43 | 43.98263 | 14.27514 | 37049 ft | 482 kts | 121° |
| 2026-05-06 19:44 | 43.94939 | 14.35600 | 37059 ft | 482 kts | 121° |
| 2026-05-06 19:44 | 43.91612 | 14.43668 | 37055 ft | 481 kts | 121° |
| 2026-05-06 19:45 | 43.88285 | 14.51722 | 37054 ft | 481 kts | 121° |
| 2026-05-06 19:45 | 43.84929 | 14.59815 | 37075 ft | 490 kts | 121° |
| 2026-05-06 19:46 | 43.81503 | 14.68054 | 37072 ft | 495 kts | 121° |
| 2026-05-06 19:46 | 43.78058 | 14.76321 | 37068 ft | 496 kts | 121° |
| 2026-05-06 19:47 | 43.74608 | 14.84576 | 37065 ft | 495 kts | 121° |
| 2026-05-06 19:47 | 43.71184 | 14.92744 | 37070 ft | 493 kts | 121° |
| 2026-05-06 19:48 | 43.67742 | 15.00930 | 37074 ft | 492 kts | 121° |
| 2026-05-06 19:48 | 43.64303 | 15.09084 | 37074 ft | 491 kts | 121° |
| 2026-05-06 19:49 | 43.60860 | 15.17227 | 37069 ft | 491 kts | 121° |
| 2026-05-06 19:49 | 43.57421 | 15.25337 | 37081 ft | 490 kts | 121° |
| 2026-05-06 19:50 | 43.53972 | 15.33447 | 37101 ft | 490 kts | 121° |
| 2026-05-06 19:50 | 43.50518 | 15.41546 | 37082 ft | 490 kts | 121° |
| 2026-05-06 19:51 | 43.47062 | 15.49630 | 37096 ft | 490 kts | 122° |
| 2026-05-06 19:51 | 43.43602 | 15.57699 | 37084 ft | 490 kts | 122° |
| 2026-05-06 19:52 | 43.40130 | 15.65771 | 37083 ft | 490 kts | 122° |
| 2026-05-06 19:52 | 43.36656 | 15.73829 | 37083 ft | 490 kts | 122° |
| 2026-05-06 19:53 | 43.33168 | 15.81894 | 37082 ft | 491 kts | 122° |
| 2026-05-06 19:53 | 43.29678 | 15.89943 | 37088 ft | 491 kts | 122° |
| 2026-05-06 19:54 | 43.26211 | 15.97918 | 37093 ft | 491 kts | 122° |
| 2026-05-06 19:54 | 43.22703 | 16.05966 | 37102 ft | 491 kts | 122° |
| 2026-05-06 19:55 | 43.19187 | 16.14002 | 37107 ft | 492 kts | 122° |
| 2026-05-06 19:55 | 43.15660 | 16.22049 | 37104 ft | 492 kts | 122° |
| 2026-05-06 19:56 | 43.12131 | 16.30083 | 37097 ft | 493 kts | 122° |
| 2026-05-06 19:56 | 43.08591 | 16.38113 | 37100 ft | 493 kts | 122° |
| 2026-05-06 19:57 | 43.05059 | 16.46100 | 37100 ft | 494 kts | 122° |
| 2026-05-06 19:57 | 43.01502 | 16.54125 | 37105 ft | 494 kts | 122° |
| 2026-05-06 19:58 | 42.97933 | 16.62157 | 37105 ft | 494 kts | 122° |
| 2026-05-06 19:58 | 42.94356 | 16.70179 | 37108 ft | 495 kts | 122° |
| 2026-05-06 19:59 | 42.90772 | 16.78200 | 37105 ft | 496 kts | 122° |
| 2026-05-06 19:59 | 42.87176 | 16.86230 | 37095 ft | 496 kts | 122° |
| 2026-05-06 20:00 | 42.83578 | 16.94237 | 37103 ft | 496 kts | 122° |
| 2026-05-06 20:00 | 42.79968 | 17.02248 | 37101 ft | 496 kts | 122° |
| 2026-05-06 20:01 | 42.76357 | 17.10246 | 37107 ft | 496 kts | 122° |
| 2026-05-06 20:01 | 42.72730 | 17.18251 | 37104 ft | 497 kts | 122° |
| 2026-05-06 20:02 | 42.69100 | 17.26242 | 37100 ft | 497 kts | 122° |
| 2026-05-06 20:02 | 42.65460 | 17.34237 | 37108 ft | 497 kts | 122° |
| 2026-05-06 20:03 | 42.61816 | 17.42218 | 37096 ft | 498 kts | 122° |
| 2026-05-06 20:03 | 42.58158 | 17.50210 | 37105 ft | 498 kts | 122° |
| 2026-05-06 20:04 | 42.54515 | 17.58124 | 37113 ft | 498 kts | 124° |
| 2026-05-06 20:04 | 42.50412 | 17.65747 | 37120 ft | 498 kts | 128° |
| 2026-05-06 20:05 | 42.46235 | 17.73165 | 37120 ft | 498 kts | 128° |
| 2026-05-06 20:05 | 42.42041 | 17.80638 | 37122 ft | 499 kts | 128° |
| 2026-05-06 20:06 | 42.37851 | 17.88137 | 37123 ft | 499 kts | 128° |
| 2026-05-06 20:06 | 42.33663 | 17.95629 | 37124 ft | 500 kts | 128° |
| 2026-05-06 20:07 | 42.29466 | 18.03119 | 37119 ft | 500 kts | 128° |
| 2026-05-06 20:07 | 42.25256 | 18.10609 | 37121 ft | 500 kts | 128° |
| 2026-05-06 20:08 | 42.21046 | 18.18078 | 37121 ft | 500 kts | 128° |
| 2026-05-06 20:08 | 42.17539 | 18.24285 | 37119 ft | 500 kts | 128° |
| 2026-05-06 20:09 | 42.13321 | 18.31735 | 37119 ft | 500 kts | 128° |
| 2026-05-06 20:09 | 42.09094 | 18.39185 | 37113 ft | 500 kts | 128° |
| 2026-05-06 20:10 | 42.04855 | 18.46638 | 37115 ft | 503 kts | 128° |
| 2026-05-06 20:10 | 42.00581 | 18.54116 | 37109 ft | 506 kts | 129° |
| 2026-05-06 20:11 | 41.96150 | 18.61481 | 37114 ft | 508 kts | 130° |
| 2026-05-06 20:11 | 41.91635 | 18.68810 | 37116 ft | 510 kts | 130° |
| 2026-05-06 20:12 | 41.87121 | 18.76154 | 37107 ft | 511 kts | 130° |
| 2026-05-06 20:12 | 41.82601 | 18.83538 | 37109 ft | 511 kts | 130° |
| 2026-05-06 20:13 | 41.78087 | 18.90901 | 37097 ft | 511 kts | 130° |
| 2026-05-06 20:13 | 41.73573 | 18.98250 | 37101 ft | 511 kts | 130° |
| 2026-05-06 20:14 | 41.69054 | 19.05591 | 37092 ft | 510 kts | 130° |
| 2026-05-06 20:14 | 41.64532 | 19.12908 | 37090 ft | 510 kts | 130° |
| 2026-05-06 20:15 | 41.60013 | 19.20211 | 37102 ft | 509 kts | 130° |
| 2026-05-06 20:15 | 41.55494 | 19.27494 | 37106 ft | 509 kts | 130° |
| 2026-05-06 20:16 | 41.50965 | 19.34770 | 37103 ft | 509 kts | 130° |
| 2026-05-06 20:16 | 41.46468 | 19.41979 | 37096 ft | 510 kts | 130° |
| 2026-05-06 20:17 | 41.41924 | 19.49252 | 37104 ft | 510 kts | 130° |
| 2026-05-06 20:17 | 41.37380 | 19.56505 | 37096 ft | 510 kts | 130° |
| 2026-05-06 20:18 | 41.32822 | 19.63762 | 37098 ft | 511 kts | 130° |
| 2026-05-06 20:18 | 41.28256 | 19.71014 | 37097 ft | 511 kts | 130° |
| 2026-05-06 20:19 | 41.23687 | 19.78254 | 37104 ft | 512 kts | 130° |
| 2026-05-06 20:19 | 41.19105 | 19.85497 | 37104 ft | 512 kts | 130° |
| 2026-05-06 20:20 | 41.14525 | 19.92721 | 37099 ft | 512 kts | 130° |
| 2026-05-06 20:20 | 41.09935 | 19.99942 | 37105 ft | 512 kts | 130° |
| 2026-05-06 20:21 | 41.05349 | 20.07141 | 37105 ft | 512 kts | 130° |
| 2026-05-06 20:21 | 41.00748 | 20.14344 | 37103 ft | 512 kts | 130° |
| 2026-05-06 20:22 | 40.96135 | 20.21549 | 37209 ft | 514 kts | 130° |
| 2026-05-06 20:22 | 40.93860 | 20.25097 | 37502 ft | 512 kts | 130° |
| 2026-05-06 20:22 | 40.91561 | 20.28678 | 37785 ft | 511 kts | 130° |
| 2026-05-06 20:23 | 40.89253 | 20.32267 | 38011 ft | 511 kts | 130° |
| 2026-05-06 20:23 | 40.86953 | 20.35840 | 38216 ft | 511 kts | 130° |
| 2026-05-06 20:23 | 40.84649 | 20.39418 | 38444 ft | 511 kts | 130° |
| 2026-05-06 20:23 | 40.82344 | 20.42993 | 38640 ft | 511 kts | 130° |
| 2026-05-06 20:24 | 40.80041 | 20.46559 | 38846 ft | 511 kts | 130° |
| 2026-05-06 20:24 | 40.77736 | 20.50125 | 38982 ft | 511 kts | 131° |
| 2026-05-06 20:24 | 40.73105 | 20.57275 | 39066 ft | 513 kts | 130° |
| 2026-05-06 20:25 | 40.68461 | 20.64428 | 39082 ft | 513 kts | 131° |
| 2026-05-06 20:25 | 40.63825 | 20.71550 | 39095 ft | 512 kts | 131° |
| 2026-05-06 20:26 | 40.59191 | 20.78654 | 39095 ft | 511 kts | 131° |
| 2026-05-06 20:26 | 40.54555 | 20.85751 | 39087 ft | 511 kts | 131° |
| 2026-05-06 20:27 | 40.49919 | 20.92827 | 39083 ft | 511 kts | 131° |
| 2026-05-06 20:27 | 40.44997 | 20.99540 | 39071 ft | 511 kts | 137° |
| 2026-05-06 20:28 | 40.39776 | 21.05785 | 39084 ft | 510 kts | 138° |
| 2026-05-06 20:28 | 40.34508 | 21.12045 | 39083 ft | 511 kts | 138° |
| 2026-05-06 20:29 | 40.29253 | 21.18331 | 39084 ft | 512 kts | 137° |
| 2026-05-06 20:29 | 40.24006 | 21.24633 | 39085 ft | 512 kts | 137° |
| 2026-05-06 20:30 | 40.16121 | 21.34086 | 39085 ft | 513 kts | 137° |
| 2026-05-06 20:31 | 40.10863 | 21.40373 | 39081 ft | 513 kts | 137° |
| 2026-05-06 20:31 | 40.05588 | 21.46662 | 39081 ft | 513 kts | 137° |
| 2026-05-06 20:32 | 40.00314 | 21.52935 | 39082 ft | 514 kts | 137° |
| 2026-05-06 20:32 | 39.95026 | 21.59210 | 39083 ft | 514 kts | 137° |
| 2026-05-06 20:33 | 39.89737 | 21.65473 | 39083 ft | 514 kts | 137° |
| 2026-05-06 20:33 | 39.84440 | 21.71735 | 39070 ft | 514 kts | 137° |
| 2026-05-06 20:34 | 39.79140 | 21.77987 | 39078 ft | 514 kts | 137° |
| 2026-05-06 20:34 | 39.73837 | 21.84227 | 39068 ft | 514 kts | 137° |
| 2026-05-06 20:35 | 39.68570 | 21.90408 | 39072 ft | 514 kts | 138° |
| 2026-05-06 20:35 | 39.63269 | 21.96620 | 39059 ft | 514 kts | 138° |
| 2026-05-06 20:36 | 39.57956 | 22.02827 | 39051 ft | 514 kts | 138° |
| 2026-05-06 20:36 | 39.52642 | 22.09028 | 39041 ft | 514 kts | 138° |
| 2026-05-06 20:37 | 39.47329 | 22.15212 | 39045 ft | 514 kts | 138° |
| 2026-05-06 20:37 | 39.42009 | 22.21392 | 39038 ft | 514 kts | 138° |
| 2026-05-06 20:38 | 39.36690 | 22.27555 | 39036 ft | 514 kts | 138° |
| 2026-05-06 20:38 | 39.31372 | 22.33711 | 39039 ft | 513 kts | 138° |
| 2026-05-06 20:39 | 39.26048 | 22.39853 | 39030 ft | 514 kts | 138° |
| 2026-05-06 20:39 | 39.20718 | 22.45990 | 39007 ft | 513 kts | 138° |
| 2026-05-06 20:40 | 39.15390 | 22.52113 | 39032 ft | 513 kts | 138° |
| 2026-05-06 20:40 | 39.10050 | 22.58234 | 39032 ft | 514 kts | 138° |
| 2026-05-06 20:41 | 39.04706 | 22.64349 | 39027 ft | 514 kts | 138° |
| 2026-05-06 20:41 | 38.99360 | 22.70458 | 39032 ft | 514 kts | 138° |
| 2026-05-06 20:42 | 38.94011 | 22.76554 | 39029 ft | 514 kts | 138° |
| 2026-05-06 20:42 | 38.88657 | 22.82640 | 39028 ft | 514 kts | 138° |
| 2026-05-06 20:43 | 38.83305 | 22.88713 | 39028 ft | 514 kts | 139° |
| 2026-05-06 20:43 | 38.77947 | 22.94780 | 39032 ft | 514 kts | 139° |
| 2026-05-06 20:44 | 38.72587 | 23.00837 | 39032 ft | 514 kts | 139° |
| 2026-05-06 20:44 | 38.67215 | 23.06896 | 39030 ft | 514 kts | 139° |
| 2026-05-06 20:45 | 38.61845 | 23.12939 | 39031 ft | 514 kts | 139° |
| 2026-05-06 20:45 | 38.56466 | 23.18979 | 39014 ft | 515 kts | 139° |
| 2026-05-06 20:46 | 38.51122 | 23.24969 | 39030 ft | 515 kts | 139° |
| 2026-05-06 20:46 | 38.45733 | 23.30996 | 39027 ft | 515 kts | 139° |
| 2026-05-06 20:47 | 38.40346 | 23.37010 | 39028 ft | 515 kts | 139° |
| 2026-05-06 20:47 | 38.34951 | 23.43016 | 39034 ft | 515 kts | 139° |
| 2026-05-06 20:48 | 38.29545 | 23.49023 | 39010 ft | 515 kts | 139° |
| 2026-05-06 20:48 | 38.24146 | 23.55011 | 39026 ft | 515 kts | 139° |
| 2026-05-06 20:49 | 38.18739 | 23.60999 | 39030 ft | 515 kts | 139° |
| 2026-05-06 20:49 | 38.13336 | 23.66967 | 39029 ft | 515 kts | 139° |
| 2026-05-06 20:50 | 38.07941 | 23.72917 | 39037 ft | 514 kts | 139° |
| 2026-05-06 20:50 | 38.02540 | 23.78858 | 39033 ft | 515 kts | 139° |
| 2026-05-06 20:51 | 37.97253 | 23.84663 | 39038 ft | 515 kts | 139° |
| 2026-05-06 20:51 | 37.91865 | 23.90565 | 39048 ft | 515 kts | 139° |
| 2026-05-06 20:52 | 37.86448 | 23.96490 | 39049 ft | 515 kts | 139° |
| 2026-05-06 20:52 | 37.81014 | 24.02422 | 39045 ft | 516 kts | 139° |
| 2026-05-06 20:53 | 37.75582 | 24.08337 | 39046 ft | 515 kts | 139° |
| 2026-05-06 20:53 | 37.70144 | 24.14250 | 39056 ft | 515 kts | 139° |
| 2026-05-06 20:54 | 37.64709 | 24.20148 | 39052 ft | 515 kts | 139° |
| 2026-05-06 20:54 | 37.59268 | 24.26041 | 39055 ft | 515 kts | 139° |
| 2026-05-06 20:55 | 37.53908 | 24.32029 | 39058 ft | 515 kts | 136° |
| 2026-05-06 20:55 | 37.48808 | 24.38365 | 39069 ft | 515 kts | 135° |
| 2026-05-06 20:56 | 37.43726 | 24.44734 | 39067 ft | 516 kts | 135° |
| 2026-05-06 20:56 | 37.38628 | 24.51071 | 39074 ft | 515 kts | 135° |
| 2026-05-06 20:57 | 37.33511 | 24.57395 | 39073 ft | 516 kts | 135° |
| 2026-05-06 20:57 | 37.28384 | 24.63709 | 39076 ft | 516 kts | 135° |
| 2026-05-06 20:58 | 37.24123 | 24.68949 | 39073 ft | 516 kts | 135° |
| 2026-05-06 20:58 | 37.18161 | 24.76271 | 39080 ft | 516 kts | 135° |
| 2026-05-06 20:59 | 37.13033 | 24.82552 | 39073 ft | 516 kts | 135° |
| 2026-05-06 20:59 | 37.08728 | 24.87818 | 39074 ft | 516 kts | 135° |
| 2026-05-06 21:00 | 37.03591 | 24.94090 | 39074 ft | 516 kts | 136° |
| 2026-05-06 21:00 | 36.98481 | 25.00316 | 39072 ft | 516 kts | 136° |
| 2026-05-06 21:01 | 36.93337 | 25.06575 | 39073 ft | 516 kts | 136° |
| 2026-05-06 21:01 | 36.88167 | 25.12789 | 39072 ft | 516 kts | 136° |
| 2026-05-06 21:02 | 36.82916 | 25.18993 | 39078 ft | 516 kts | 136° |
| 2026-05-06 21:02 | 36.77735 | 25.25111 | 39082 ft | 516 kts | 136° |
| 2026-05-06 21:03 | 36.72529 | 25.31269 | 39085 ft | 516 kts | 136° |
| 2026-05-06 21:03 | 36.67323 | 25.37416 | 39088 ft | 515 kts | 137° |
| 2026-05-06 21:04 | 36.62138 | 25.43580 | 39094 ft | 515 kts | 136° |
| 2026-05-06 21:04 | 36.57020 | 25.49831 | 39099 ft | 516 kts | 135° |
| 2026-05-06 21:05 | 36.51899 | 25.56090 | 39102 ft | 516 kts | 136° |
| 2026-05-06 21:05 | 36.46763 | 25.62326 | 39101 ft | 516 kts | 136° |
| 2026-05-06 21:06 | 36.41621 | 25.68547 | 39102 ft | 516 kts | 136° |
| 2026-05-06 21:06 | 36.36477 | 25.74755 | 39104 ft | 516 kts | 136° |
| 2026-05-06 21:07 | 36.31325 | 25.80965 | 39102 ft | 516 kts | 136° |
| 2026-05-06 21:07 | 36.26173 | 25.87167 | 39100 ft | 516 kts | 136° |
| 2026-05-06 21:08 | 36.21004 | 25.93345 | 39096 ft | 516 kts | 136° |
| 2026-05-06 21:08 | 36.15794 | 25.99462 | 39090 ft | 516 kts | 137° |
| 2026-05-06 21:09 | 36.10582 | 26.05567 | 39093 ft | 516 kts | 137° |
| 2026-05-06 21:09 | 36.05371 | 26.11677 | 39091 ft | 516 kts | 137° |
| 2026-05-06 21:10 | 36.00161 | 26.17780 | 39083 ft | 516 kts | 137° |
| 2026-05-06 21:10 | 35.94945 | 26.23878 | 39083 ft | 516 kts | 137° |
| 2026-05-06 21:11 | 35.89734 | 26.29961 | 39082 ft | 516 kts | 137° |
| 2026-05-06 21:11 | 35.84554 | 26.36006 | 39072 ft | 516 kts | 137° |
| 2026-05-06 21:12 | 35.79306 | 26.42123 | 39073 ft | 516 kts | 137° |
| 2026-05-06 21:12 | 35.74090 | 26.48193 | 39074 ft | 516 kts | 137° |
| 2026-05-06 21:13 | 35.68871 | 26.54253 | 39067 ft | 516 kts | 137° |
| 2026-05-06 21:13 | 35.63684 | 26.60264 | 39064 ft | 516 kts | 137° |
| 2026-05-06 21:14 | 35.58461 | 26.66304 | 39067 ft | 516 kts | 137° |
| 2026-05-06 21:14 | 35.53228 | 26.72347 | 39057 ft | 516 kts | 137° |
| 2026-05-06 21:15 | 35.47998 | 26.78378 | 39056 ft | 516 kts | 137° |
| 2026-05-06 21:15 | 35.42759 | 26.84403 | 39055 ft | 516 kts | 137° |
| 2026-05-06 21:16 | 35.37526 | 26.90414 | 39060 ft | 516 kts | 137° |
| 2026-05-06 21:16 | 35.32284 | 26.96419 | 39053 ft | 516 kts | 137° |
| 2026-05-06 21:17 | 35.27036 | 27.02406 | 39047 ft | 516 kts | 138° |
| 2026-05-06 21:17 | 35.21781 | 27.08397 | 39046 ft | 516 kts | 138° |
| 2026-05-06 21:18 | 35.16530 | 27.14374 | 39047 ft | 516 kts | 138° |
| 2026-05-06 21:18 | 35.11270 | 27.20344 | 39046 ft | 516 kts | 138° |
| 2026-05-06 21:19 | 35.05997 | 27.26298 | 39045 ft | 516 kts | 138° |
| 2026-05-06 21:19 | 35.00754 | 27.32208 | 39049 ft | 517 kts | 138° |
| 2026-05-06 21:20 | 34.95480 | 27.38153 | 39046 ft | 517 kts | 138° |
| 2026-05-06 21:20 | 34.90199 | 27.44097 | 39044 ft | 517 kts | 138° |
| 2026-05-06 21:21 | 34.84916 | 27.50031 | 39049 ft | 517 kts | 138° |
| 2026-05-06 21:21 | 34.79631 | 27.55960 | 39046 ft | 517 kts | 139° |
| 2026-05-06 21:22 | 34.74340 | 27.61881 | 39047 ft | 517 kts | 139° |
| 2026-05-06 21:22 | 34.69045 | 27.67793 | 39046 ft | 517 kts | 139° |
| 2026-05-06 21:23 | 34.63754 | 27.73692 | 39045 ft | 517 kts | 139° |
| 2026-05-06 21:23 | 34.58453 | 27.79592 | 39047 ft | 517 kts | 139° |
| 2026-05-06 21:24 | 34.53179 | 27.85449 | 39049 ft | 517 kts | 139° |
| 2026-05-06 21:24 | 34.47867 | 27.91344 | 39060 ft | 518 kts | 139° |
| 2026-05-06 21:25 | 34.42551 | 27.97228 | 39056 ft | 518 kts | 139° |
| 2026-05-06 21:25 | 34.37224 | 28.03114 | 39054 ft | 518 kts | 139° |
| 2026-05-06 21:26 | 34.31901 | 28.08987 | 39056 ft | 518 kts | 139° |
| 2026-05-06 21:26 | 34.26577 | 28.14849 | 39056 ft | 518 kts | 139° |
| 2026-05-06 21:27 | 34.21238 | 28.20718 | 39053 ft | 518 kts | 139° |
| 2026-05-06 21:27 | 34.15904 | 28.26569 | 39066 ft | 518 kts | 139° |
| 2026-05-06 21:28 | 34.10570 | 28.32411 | 39065 ft | 518 kts | 140° |
| 2026-05-06 21:28 | 34.05232 | 28.38246 | 39064 ft | 518 kts | 140° |
| 2026-05-06 21:29 | 33.99890 | 28.44071 | 39066 ft | 518 kts | 140° |
| 2026-05-06 21:29 | 33.94541 | 28.49898 | 39071 ft | 518 kts | 140° |
| 2026-05-06 21:30 | 33.89198 | 28.55712 | 39065 ft | 518 kts | 140° |
| 2026-05-06 21:30 | 33.83847 | 28.61521 | 39070 ft | 518 kts | 140° |
| 2026-05-06 21:31 | 33.78504 | 28.67315 | 39079 ft | 518 kts | 140° |
| 2026-05-06 21:31 | 33.73146 | 28.73109 | 39070 ft | 518 kts | 140° |
| 2026-05-06 21:32 | 33.67821 | 28.78939 | 39064 ft | 518 kts | 139° |
| 2026-05-06 21:32 | 33.59947 | 28.87821 | 39077 ft | 518 kts | 139° |
| 2026-05-06 21:33 | 33.54694 | 28.93734 | 39072 ft | 518 kts | 139° |
| 2026-05-06 21:33 | 33.49423 | 28.99632 | 39074 ft | 518 kts | 139° |
| 2026-05-06 21:34 | 33.44149 | 29.05516 | 39073 ft | 518 kts | 139° |
| 2026-05-06 21:34 | 33.38876 | 29.11389 | 39075 ft | 518 kts | 139° |
| 2026-05-06 21:35 | 33.33602 | 29.17254 | 39073 ft | 518 kts | 139° |
| 2026-05-06 21:35 | 33.28332 | 29.23103 | 39082 ft | 517 kts | 139° |
| 2026-05-06 21:36 | 33.23086 | 29.28915 | 39084 ft | 517 kts | 139° |
| 2026-05-06 21:36 | 33.17803 | 29.34760 | 39084 ft | 518 kts | 139° |
| 2026-05-06 21:37 | 33.12517 | 29.40598 | 39085 ft | 518 kts | 140° |
| 2026-05-06 21:37 | 33.07227 | 29.46434 | 39084 ft | 518 kts | 140° |
| 2026-05-06 21:38 | 33.01940 | 29.52254 | 39086 ft | 517 kts | 140° |
| 2026-05-06 21:38 | 32.96651 | 29.58064 | 39083 ft | 517 kts | 140° |
| 2026-05-06 21:39 | 32.91361 | 29.63867 | 39083 ft | 517 kts | 140° |
| 2026-05-06 21:39 | 32.86066 | 29.69666 | 39083 ft | 517 kts | 140° |
| 2026-05-06 21:40 | 32.80763 | 29.75459 | 39096 ft | 518 kts | 140° |
| 2026-05-06 21:40 | 32.75461 | 29.81250 | 39091 ft | 517 kts | 140° |
| 2026-05-06 21:41 | 32.70161 | 29.87026 | 39093 ft | 517 kts | 140° |
| 2026-05-06 21:41 | 32.64858 | 29.92795 | 39091 ft | 517 kts | 140° |
| 2026-05-06 21:42 | 32.59557 | 29.98549 | 39085 ft | 517 kts | 140° |
| 2026-05-06 21:42 | 32.54259 | 30.04297 | 39076 ft | 516 kts | 140° |
| 2026-05-06 21:43 | 32.48957 | 30.10037 | 39080 ft | 516 kts | 141° |
| 2026-05-06 21:43 | 32.43644 | 30.15769 | 39084 ft | 516 kts | 141° |
| 2026-05-06 21:44 | 32.38338 | 30.21485 | 39084 ft | 516 kts | 141° |
| 2026-05-06 21:44 | 32.33022 | 30.27203 | 39082 ft | 516 kts | 141° |
| 2026-05-06 21:45 | 32.27710 | 30.32911 | 39080 ft | 514 kts | 141° |
| 2026-05-06 21:45 | 32.22463 | 30.38539 | 39073 ft | 506 kts | 141° |
| 2026-05-06 21:46 | 32.17289 | 30.44080 | 39081 ft | 504 kts | 141° |
| 2026-05-06 21:46 | 32.12096 | 30.49631 | 39083 ft | 504 kts | 141° |
| 2026-05-06 21:47 | 32.06898 | 30.55176 | 39083 ft | 505 kts | 141° |
| 2026-05-06 21:47 | 32.01682 | 30.60734 | 39085 ft | 505 kts | 141° |
| 2026-05-06 21:48 | 31.97303 | 30.65391 | 39086 ft | 507 kts | 141° |
| 2026-05-06 21:48 | 31.92068 | 30.70956 | 39084 ft | 507 kts | 141° |
| 2026-05-06 21:49 | 31.86860 | 30.76483 | 39085 ft | 508 kts | 141° |
| 2026-05-06 21:49 | 31.81607 | 30.82044 | 39082 ft | 508 kts | 141° |
| 2026-05-06 21:50 | 31.76355 | 30.87600 | 39083 ft | 507 kts | 141° |
| 2026-05-06 21:50 | 31.71131 | 30.93116 | 39083 ft | 507 kts | 142° |
| 2026-05-06 21:51 | 31.65858 | 30.98674 | 39082 ft | 507 kts | 142° |
| 2026-05-06 21:51 | 31.60617 | 31.04192 | 39080 ft | 506 kts | 142° |
| 2026-05-06 21:52 | 31.55311 | 31.09519 | 38830 ft | 491 kts | 150° |
| 2026-05-06 21:52 | 31.52389 | 31.11470 | 38321 ft | 480 kts | 160° |
| 2026-05-06 21:52 | 31.49285 | 31.12880 | 37429 ft | 478 kts | 167° |
| 2026-05-06 21:53 | 31.46044 | 31.13731 | 36449 ft | 477 kts | 176° |
| 2026-05-06 21:53 | 31.42741 | 31.14280 | 35405 ft | 482 kts | 176° |
| 2026-05-06 21:53 | 31.39380 | 31.14831 | 34127 ft | 493 kts | 176° |
| 2026-05-06 21:53 | 31.35963 | 31.15419 | 32860 ft | 501 kts | 175° |
| 2026-05-06 21:54 | 31.32499 | 31.16043 | 31712 ft | 505 kts | 175° |
| 2026-05-06 21:54 | 31.29036 | 31.16686 | 30880 ft | 502 kts | 175° |
| 2026-05-06 21:54 | 31.25615 | 31.17322 | 30277 ft | 494 kts | 175° |
| 2026-05-06 21:54 | 31.22246 | 31.17945 | 29642 ft | 487 kts | 175° |
| 2026-05-06 21:55 | 31.18916 | 31.18568 | 28960 ft | 482 kts | 175° |
| 2026-05-06 21:55 | 31.15617 | 31.19186 | 28262 ft | 478 kts | 175° |
| 2026-05-06 21:55 | 31.12358 | 31.19797 | 27669 ft | 471 kts | 174° |
| 2026-05-06 21:55 | 31.09146 | 31.20400 | 27206 ft | 462 kts | 174° |
| 2026-05-06 21:56 | 31.06030 | 31.20985 | 26666 ft | 444 kts | 174° |
| 2026-05-06 21:56 | 31.03031 | 31.21548 | 25802 ft | 434 kts | 174° |
| 2026-05-06 21:56 | 31.00065 | 31.22101 | 24719 ft | 429 kts | 174° |
| 2026-05-06 21:56 | 30.97126 | 31.22646 | 23635 ft | 426 kts | 174° |
| 2026-05-06 21:57 | 30.94218 | 31.23185 | 22612 ft | 420 kts | 174° |
| 2026-05-06 21:57 | 30.91353 | 31.23716 | 21646 ft | 414 kts | 174° |
| 2026-05-06 21:57 | 30.88573 | 31.24234 | 20706 ft | 408 kts | 174° |
| 2026-05-06 21:57 | 30.85793 | 31.24751 | 19748 ft | 402 kts | 174° |
| 2026-05-06 21:58 | 30.83048 | 31.25261 | 18786 ft | 396 kts | 174° |
| 2026-05-06 21:58 | 30.80340 | 31.25763 | 17830 ft | 391 kts | 174° |
| 2026-05-06 21:58 | 30.77673 | 31.26258 | 16887 ft | 386 kts | 174° |
| 2026-05-06 21:58 | 30.75039 | 31.26747 | 15957 ft | 381 kts | 174° |
| 2026-05-06 21:59 | 30.72442 | 31.27228 | 15053 ft | 375 kts | 173° |
| 2026-05-06 21:59 | 30.69886 | 31.27700 | 14213 ft | 368 kts | 173° |
| 2026-05-06 21:59 | 30.67412 | 31.28159 | 13735 ft | 352 kts | 173° |
| 2026-05-06 21:59 | 30.65038 | 31.28599 | 13257 ft | 339 kts | 173° |
| 2026-05-06 22:00 | 30.62741 | 31.29025 | 12809 ft | 330 kts | 173° |
| 2026-05-06 22:00 | 30.60496 | 31.29439 | 12379 ft | 330 kts | 173° |
| 2026-05-06 22:00 | 30.58169 | 31.29866 | 12049 ft | 341 kts | 173° |
| 2026-05-06 22:00 | 30.55806 | 31.30293 | 11531 ft | 343 kts | 174° |
| 2026-05-06 22:01 | 30.53460 | 31.30319 | 10981 ft | 341 kts | 186° |
| 2026-05-06 22:01 | 30.51131 | 31.30027 | 10675 ft | 334 kts | 189° |
| 2026-05-06 22:01 | 30.48841 | 31.29674 | 10334 ft | 330 kts | 189° |
| 2026-05-06 22:01 | 30.46574 | 31.29314 | 9929 ft | 328 kts | 189° |
| 2026-05-06 22:02 | 30.44327 | 31.28949 | 9509 ft | 326 kts | 189° |
| 2026-05-06 22:02 | 30.42084 | 31.28579 | 9111 ft | 324 kts | 189° |
| 2026-05-06 22:02 | 30.39863 | 31.28207 | 8715 ft | 322 kts | 189° |
| 2026-05-06 22:02 | 30.37666 | 31.27837 | 8446 ft | 314 kts | 189° |
| 2026-05-06 22:03 | 30.35568 | 31.27487 | 8047 ft | 297 kts | 189° |
| 2026-05-06 22:03 | 30.33592 | 31.26976 | 7353 ft | 289 kts | 201° |
| 2026-05-06 22:03 | 30.31744 | 31.26108 | 6674 ft | 283 kts | 204° |
| 2026-05-06 22:03 | 30.29958 | 31.25230 | 6155 ft | 274 kts | 205° |
| 2026-05-06 22:04 | 30.28242 | 31.24385 | 5740 ft | 262 kts | 205° |
| 2026-05-06 22:04 | 30.26590 | 31.23573 | 5301 ft | 253 kts | 205° |
| 2026-05-06 22:04 | 30.24997 | 31.22793 | 4945 ft | 242 kts | 205° |
| 2026-05-06 22:04 | 30.23496 | 31.22057 | 4685 ft | 229 kts | 205° |
| 2026-05-06 22:05 | 30.22033 | 31.21343 | 4462 ft | 225 kts | 205° |
| 2026-05-06 22:05 | 30.20611 | 31.20653 | 4305 ft | 219 kts | 205° |
| 2026-05-06 22:05 | 30.19220 | 31.19979 | 4093 ft | 214 kts | 205° |
| 2026-05-06 22:05 | 30.17849 | 31.19309 | 3802 ft | 213 kts | 205° |
| 2026-05-06 22:06 | 30.16479 | 31.18642 | 3513 ft | 213 kts | 204° |
| 2026-05-06 22:06 | 30.15062 | 31.18195 | 3122 ft | 214 kts | 188° |
| 2026-05-06 22:06 | 30.13595 | 31.18056 | 2801 ft | 214 kts | 185° |
| 2026-05-06 22:06 | 30.12115 | 31.17952 | 2576 ft | 208 kts | 185° |
| 2026-05-06 22:07 | 30.10694 | 31.17854 | 2561 ft | 205 kts | 185° |
| 2026-05-06 22:07 | 30.09240 | 31.17755 | 2567 ft | 214 kts | 185° |
| 2026-05-06 22:07 | 30.07759 | 31.17652 | 2517 ft | 216 kts | 185° |
| 2026-05-06 22:07 | 30.06269 | 31.17549 | 2502 ft | 213 kts | 185° |
| 2026-05-06 22:08 | 30.04818 | 31.17730 | 2484 ft | 209 kts | 158° |
| 2026-05-06 22:08 | 30.03465 | 31.18312 | 2497 ft | 214 kts | 169° |
| 2026-05-06 22:08 | 30.02046 | 31.18821 | 2493 ft | 217 kts | 148° |
| 2026-05-06 22:08 | 30.01039 | 31.20093 | 2507 ft | 216 kts | 118° |
| 2026-05-06 22:09 | 30.00385 | 31.21657 | 2506 ft | 218 kts | 115° |
| 2026-05-06 22:09 | 29.99740 | 31.23240 | 2492 ft | 210 kts | 112° |
| 2026-05-06 22:09 | 29.99530 | 31.24790 | 2484 ft | 194 kts | 76° |
| 2026-05-06 22:09 | 30.00123 | 31.26174 | 2507 ft | 191 kts | 54° |
| 2026-05-06 22:10 | 30.00864 | 31.27447 | 2501 ft | 191 kts | 54° |
| 2026-05-06 22:10 | 30.01603 | 31.28621 | 2494 ft | 175 kts | 50° |
| 2026-05-06 22:10 | 30.02362 | 31.29678 | 2483 ft | 165 kts | 47° |
| 2026-05-06 22:10 | 30.03086 | 31.30650 | 2468 ft | 159 kts | 47° |
| 2026-05-06 22:11 | 30.03798 | 31.31599 | 2255 ft | 154 kts | 47° |
| 2026-05-06 22:11 | 30.04496 | 31.32528 | 2036 ft | 151 kts | 47° |
| 2026-05-06 22:11 | 30.05174 | 31.33431 | 1823 ft | 147 kts | 47° |
| 2026-05-06 22:11 | 30.05841 | 31.34321 | 1639 ft | 147 kts | 47° |
| 2026-05-06 22:12 | 30.06482 | 31.35177 | 1449 ft | 147 kts | 47° |
| 2026-05-06 22:12 | 30.07145 | 31.36061 | 1270 ft | 147 kts | 47° |
| 2026-05-06 22:12 | 30.07812 | 31.36952 | 1063 ft | 146 kts | 47° |
| 2026-05-06 22:12 | 30.08422 | 31.37765 | 886 ft | 145 kts | 48° |
| 2026-05-06 22:13 | 30.09081 | 31.38649 | 688 ft | 145 kts | 48° |
| 2026-05-06 22:13 | 30.09744 | 31.39532 | 507 ft | 145 kts | 47° |
| 2026-05-06 22:13 | 30.10399 | 31.40403 | 392 ft | 137 kts | 49° |
| 2026-05-06 22:13 | 30.10916 | 31.41088 | 393 ft | 87 kts | 49° |
| 2026-05-06 22:14 | 30.11211 | 31.41475 | 393 ft | 53 kts | 43° |
| 2026-05-06 22:14 | 30.11444 | 31.41611 | 393 ft | 21 kts | 18° |
| 2026-05-06 22:14 | 30.11542 | 31.41579 | 394 ft | 11 kts | 288° |
| 2026-05-06 22:14 | 30.11514 | 31.41498 | 389 ft | 12 kts | 230° |
| 2026-05-06 22:15 | 30.11462 | 31.41426 | 394 ft | 12 kts | 230° |
| 2026-05-06 22:15 | 30.11407 | 31.41350 | 391 ft | 13 kts | 230° |
| 2026-05-06 22:15 | 30.11348 | 31.41273 | 394 ft | 13 kts | 228° |
| 2026-05-06 22:15 | 30.11287 | 31.41194 | 394 ft | 13 kts | 229° |
| 2026-05-06 22:16 | 30.11226 | 31.41114 | 394 ft | 13 kts | 230° |
| 2026-05-06 22:16 | 30.11166 | 31.41033 | 394 ft | 13 kts | 229° |
| 2026-05-06 22:16 | 30.11105 | 31.40952 | 389 ft | 13 kts | 229° |
| 2026-05-06 22:16 | 30.11043 | 31.40871 | 394 ft | 14 kts | 229° |
| 2026-05-06 22:17 | 30.10979 | 31.40785 | 392 ft | 15 kts | 230° |
| 2026-05-06 22:17 | 30.10911 | 31.40693 | 393 ft | 15 kts | 229° |
| 2026-05-06 22:17 | 30.10844 | 31.40603 | 393 ft | 15 kts | 229° |
| 2026-05-06 22:17 | 30.10775 | 31.40511 | 392 ft | 16 kts | 229° |
| 2026-05-06 22:18 | 30.10702 | 31.40413 | 391 ft | 17 kts | 229° |
| 2026-05-06 22:18 | 30.10693 | 31.40284 | 392 ft | 17 kts | 275° |
| 2026-05-06 22:18 | 30.10633 | 31.40158 | 389 ft | 19 kts | 227° |
| 2026-05-06 22:18 | 30.10547 | 31.40048 | 384 ft | 20 kts | 229° |
| 2026-05-06 22:19 | 30.10489 | 31.39944 | 384 ft | 16 kts | 259° |
| 2026-05-06 22:19 | 30.10547 | 31.39847 | 379 ft | 17 kts | 338° |
| 2026-05-06 22:19 | 30.10651 | 31.39812 | 377 ft | 15 kts | 346° |
| 2026-05-06 22:19 | 30.10750 | 31.39784 | 378 ft | 15 kts | 346° |
| 2026-05-06 22:20 | 30.10836 | 31.39756 | 376 ft | 1 kts | 344° |
| 2026-05-06 22:20 | 30.10848 | 31.39752 | 375 ft | 3 kts | 343° |
| 2026-05-06 22:20 | 30.10865 | 31.39736 | 380 ft | 3 kts | 310° |
| 2026-05-06 22:20 | 30.10873 | 31.39706 | 375 ft | 5 kts | 281° |
| 2026-05-06 22:21 | 30.10867 | 31.39667 | 376 ft | 5 kts | 255° |
| 2026-05-06 22:21 | 30.10864 | 31.39652 | 375 ft | 0 kts | 255° |